createdAt,value
2023-11-24T00:00:54.379Z,91.23
2023-11-24T00:01:54.368Z,91.44
2023-11-24T00:02:54.723Z,91.13
2023-11-24T00:03:55.160Z,90.82
2023-11-24T00:04:54.675Z,91.03
2023-11-24T00:05:55.037Z,91.03
2023-11-24T00:06:54.304Z,91.23
2023-11-24T00:07:54.710Z,90.77
2023-11-24T00:08:54.249Z,90.25
2023-11-24T00:09:54.228Z,90.15
2023-11-24T00:10:54.261Z,90.66
2023-11-24T00:11:54.184Z,90.77
2023-11-24T00:12:54.274Z,91.07
2023-11-24T00:13:54.174Z,91.07
2023-11-24T00:14:54.180Z,91.17
2023-11-24T00:15:54.166Z,91.17
2023-11-24T00:16:54.212Z,91.38
2023-11-24T00:17:56.403Z,91.38
2023-11-24T00:18:54.152Z,91.38
2023-11-24T00:19:54.145Z,90.77
2023-11-24T00:20:54.132Z,90.77
2023-11-24T00:21:54.125Z,90.86
2023-11-24T00:22:54.104Z,91.07
2023-11-24T00:23:54.073Z,90.66
2023-11-24T00:24:54.091Z,90.56
2023-11-24T00:25:54.087Z,90.36
2023-11-24T00:26:54.040Z,90.25
2023-11-24T00:27:54.120Z,90.15
2023-11-24T00:28:54.057Z,89.94
2023-11-24T00:29:54.036Z,89.03
2023-11-24T00:30:54.044Z,89.84
2023-11-24T00:31:54.034Z,89.84
2023-11-24T00:32:54.062Z,89.84
2023-11-24T00:33:54.141Z,89.33
2023-11-24T00:34:53.974Z,88.62
2023-11-24T00:35:53.944Z,89.12
2023-11-24T00:36:54.043Z,89.43
2023-11-24T00:37:53.975Z,89.33
2023-11-24T00:38:53.943Z,89.33
2023-11-24T00:39:53.956Z,89.64
2023-11-24T00:40:53.899Z,89.64
2023-11-24T00:41:53.867Z,89.53
2023-11-24T00:42:53.958Z,89.12
2023-11-24T00:43:53.876Z,87.90
2023-11-24T00:44:53.867Z,87.70
2023-11-24T00:45:53.903Z,87.90
2023-11-24T00:46:53.856Z,88.20
2023-11-24T00:47:53.872Z,88.00
2023-11-24T00:48:53.834Z,87.08
2023-11-24T00:49:53.783Z,87.59
2023-11-24T00:50:53.820Z,87.29
2023-11-24T00:51:53.808Z,87.18
2023-11-24T00:52:53.818Z,87.18
2023-11-24T00:53:53.770Z,86.91
2023-11-24T00:54:53.797Z,87.84
2023-11-24T00:55:53.720Z,87.79
2023-11-24T00:56:53.725Z,87.63
2023-11-24T00:57:53.730Z,87.49
2023-11-24T00:58:53.732Z,86.91
2023-11-24T00:59:53.721Z,86.71
2023-11-24T01:00:53.705Z,86.71
2023-11-24T01:01:53.756Z,87.02
2023-11-24T01:02:53.692Z,87.12
2023-11-24T01:03:53.723Z,87.02
2023-11-24T01:04:53.692Z,86.61
2023-11-24T01:05:53.651Z,86.61
2023-11-24T01:06:53.674Z,86.61
2023-11-24T01:07:53.590Z,86.51
2023-11-24T01:08:53.628Z,86.71
2023-11-24T01:09:53.650Z,87.02
2023-11-24T01:10:53.598Z,86.91
2023-11-24T01:11:53.567Z,87.02
2023-11-24T01:12:53.650Z,86.91
2023-11-24T01:13:53.580Z,86.91
2023-11-24T01:14:53.584Z,86.51
2023-11-24T01:15:53.569Z,86.40
2023-11-24T01:16:53.578Z,85.69
2023-11-24T01:17:53.535Z,85.99
2023-11-24T01:18:53.480Z,85.99
2023-11-24T01:19:53.518Z,86.20
2023-11-24T01:20:53.467Z,85.89
2023-11-24T01:21:53.501Z,86.10
2023-11-24T01:22:53.437Z,85.99
2023-11-24T01:23:53.960Z,85.79
2023-11-24T01:24:53.496Z,85.79
2023-11-24T01:25:53.425Z,85.38
2023-11-24T01:26:53.402Z,84.05
2023-11-24T01:27:53.440Z,84.77
2023-11-24T01:28:53.452Z,84.36
2023-11-24T01:29:53.378Z,84.66
2023-11-24T01:30:55.871Z,83.95
2023-11-24T01:31:53.344Z,84.25
2023-11-24T01:32:53.365Z,84.56
2023-11-24T01:33:53.391Z,84.77
2023-11-24T01:34:53.319Z,84.66
2023-11-24T01:35:53.300Z,84.56
2023-11-24T01:36:53.431Z,83.95
2023-11-24T01:37:53.284Z,84.15
2023-11-24T01:38:53.272Z,84.46
2023-11-24T01:39:53.333Z,84.05
2023-11-24T01:40:53.484Z,83.84
2023-11-24T01:41:53.304Z,83.33
2023-11-24T01:42:53.263Z,83.33
2023-11-24T01:43:53.212Z,83.64
2023-11-24T01:44:53.203Z,83.64
2023-11-24T01:45:53.237Z,83.84
2023-11-24T01:46:53.264Z,83.88
2023-11-24T01:47:53.233Z,83.98
2023-11-24T01:48:53.183Z,82.65
2023-11-24T01:49:53.154Z,83.37
2023-11-24T01:50:53.153Z,83.98
2023-11-24T01:51:53.173Z,83.64
2023-11-24T01:52:53.160Z,83.98
2023-11-24T01:53:53.125Z,84.29
2023-11-24T01:54:53.160Z,84.05
2023-11-24T01:55:53.103Z,84.39
2023-11-24T01:56:53.108Z,83.78
2023-11-24T01:57:53.089Z,84.19
2023-11-24T01:58:53.127Z,84.05
2023-11-24T01:59:53.072Z,84.50
2023-11-24T02:00:53.093Z,84.29
2023-11-24T02:01:53.062Z,84.60
2023-11-24T02:02:53.085Z,84.80
2023-11-24T02:03:53.241Z,83.88
2023-11-24T02:04:53.003Z,82.14
2023-11-24T02:05:53.007Z,80.91
2023-11-24T02:06:53.037Z,81.43
2023-11-24T02:07:52.992Z,82.24
2023-11-24T02:08:52.952Z,81.73
2023-11-24T02:09:52.986Z,81.94
2023-11-24T02:10:52.937Z,81.94
2023-11-24T02:11:52.946Z,82.14
2023-11-24T02:12:52.980Z,82.69
2023-11-24T02:13:53.022Z,83.20
2023-11-24T02:14:52.896Z,83.31
2023-11-24T02:15:54.630Z,83.61
2023-11-24T02:16:52.922Z,84.12
2023-11-24T02:17:52.944Z,84.64
2023-11-24T02:18:52.860Z,84.12
2023-11-24T02:19:52.833Z,84.44
2023-11-24T02:20:52.832Z,84.95
2023-11-24T02:21:52.914Z,85.15
2023-11-24T02:22:52.793Z,85.36
2023-11-24T02:23:52.843Z,84.58
2023-11-24T02:24:52.849Z,85.19
2023-11-24T02:25:52.804Z,85.30
2023-11-24T02:26:52.751Z,85.60
2023-11-24T02:27:52.763Z,85.71
2023-11-24T02:28:52.774Z,85.50
2023-11-24T02:29:52.751Z,85.50
2023-11-24T02:30:52.759Z,85.60
2023-11-24T02:31:52.734Z,85.50
2023-11-24T02:32:52.746Z,85.50
2023-11-24T02:33:52.719Z,85.30
2023-11-24T02:34:52.699Z,85.30
2023-11-24T02:35:52.705Z,85.39
2023-11-24T02:36:52.701Z,85.39
2023-11-24T02:37:52.675Z,85.30
2023-11-24T02:38:52.626Z,85.30
2023-11-24T02:39:52.735Z,85.39
2023-11-24T02:40:52.636Z,85.19
2023-11-24T02:41:52.641Z,85.19
2023-11-24T02:42:52.632Z,85.39
2023-11-24T02:43:52.652Z,85.50
2023-11-24T02:44:52.591Z,85.19
2023-11-24T02:45:52.591Z,85.39
2023-11-24T02:46:52.576Z,85.60
2023-11-24T02:47:52.613Z,85.60
2023-11-24T02:48:52.598Z,85.50
2023-11-24T02:49:52.521Z,84.99
2023-11-24T02:50:52.508Z,85.39
2023-11-24T02:51:52.536Z,85.19
2023-11-24T02:52:52.554Z,84.68
2023-11-24T02:53:52.509Z,84.68
2023-11-24T02:54:52.501Z,84.88
2023-11-24T02:55:52.506Z,84.78
2023-11-24T02:56:52.467Z,84.37
2023-11-24T02:57:52.470Z,84.37
2023-11-24T02:58:52.437Z,84.37
2023-11-24T02:59:52.464Z,84.27
2023-11-24T03:00:52.470Z,84.58
2023-11-24T03:01:52.556Z,84.58
2023-11-24T03:02:52.391Z,84.88
2023-11-24T03:03:52.448Z,84.78
2023-11-24T03:04:52.415Z,84.17
2023-11-24T03:05:52.384Z,84.27
2023-11-24T03:06:52.427Z,84.06
2023-11-24T03:07:52.362Z,84.17
2023-11-24T03:08:52.335Z,84.06
2023-11-24T03:09:52.371Z,84.06
2023-11-24T03:10:52.338Z,83.86
2023-11-24T03:11:52.298Z,83.65
2023-11-24T03:12:52.316Z,83.76
2023-11-24T03:13:52.269Z,83.76
2023-11-24T03:14:52.293Z,83.25
2023-11-24T03:15:52.303Z,83.14
2023-11-24T03:16:52.350Z,82.87
2023-11-24T03:17:52.320Z,83.07
2023-11-24T03:18:52.275Z,83.18
2023-11-24T03:19:52.275Z,83.49
2023-11-24T03:20:52.203Z,83.28
2023-11-24T03:21:52.244Z,83.07
2023-11-24T03:22:52.181Z,83.07
2023-11-24T03:23:52.197Z,83.18
2023-11-24T03:24:52.215Z,82.97
2023-11-24T03:25:52.222Z,83.18
2023-11-24T03:26:52.190Z,83.28
2023-11-24T03:27:52.161Z,83.07
2023-11-24T03:28:52.117Z,82.87
2023-11-24T03:29:52.187Z,82.97
2023-11-24T03:30:52.137Z,82.26
2023-11-24T03:31:52.116Z,82.26
2023-11-24T03:32:52.112Z,82.36
2023-11-24T03:33:52.153Z,82.26
2023-11-24T03:34:52.047Z,82.67
2023-11-24T03:35:52.048Z,82.87
2023-11-24T03:36:52.084Z,82.67
2023-11-24T03:37:52.017Z,82.97
2023-11-24T03:38:52.040Z,83.18
2023-11-24T03:39:52.086Z,83.28
2023-11-24T03:40:52.006Z,82.97
2023-11-24T03:41:52.029Z,82.97
2023-11-24T03:42:52.037Z,82.77
2023-11-24T03:43:51.975Z,82.77
2023-11-24T03:44:52.043Z,82.97
2023-11-24T03:45:52.042Z,83.07
2023-11-24T03:46:52.040Z,82.97
2023-11-24T03:47:52.153Z,82.67
2023-11-24T03:48:51.990Z,82.56
2023-11-24T03:49:51.987Z,82.36
2023-11-24T03:50:51.940Z,82.26
2023-11-24T03:51:52.035Z,82.36
2023-11-24T03:52:52.076Z,82.26
2023-11-24T03:53:51.965Z,82.15
2023-11-24T03:54:52.096Z,82.15
2023-11-24T03:55:52.030Z,82.26
2023-11-24T03:56:51.978Z,81.74
2023-11-24T03:57:51.890Z,81.43
2023-11-24T03:58:51.830Z,82.15
2023-11-24T03:59:51.877Z,82.56
2023-11-24T04:00:52.042Z,82.36
2023-11-24T04:01:51.997Z,82.67
2023-11-24T04:02:51.864Z,82.67
2023-11-24T04:03:51.910Z,82.46
2023-11-24T04:04:51.752Z,82.36
2023-11-24T04:05:51.746Z,82.36
2023-11-24T04:06:51.773Z,82.05
2023-11-24T04:07:51.724Z,82.05
2023-11-24T04:08:51.722Z,81.74
2023-11-24T04:09:51.718Z,82.05
2023-11-24T04:10:51.699Z,81.95
2023-11-24T04:11:51.655Z,81.64
2023-11-24T04:12:51.712Z,81.64
2023-11-24T04:13:51.631Z,81.54
2023-11-24T04:14:51.650Z,81.74
2023-11-24T04:15:51.758Z,81.54
2023-11-24T04:16:51.644Z,81.85
2023-11-24T04:17:51.659Z,81.85
2023-11-24T04:18:51.666Z,81.74
2023-11-24T04:19:51.596Z,81.43
2023-11-24T04:20:51.591Z,81.13
2023-11-24T04:21:51.601Z,81.54
2023-11-24T04:22:51.581Z,81.54
2023-11-24T04:23:51.566Z,81.43
2023-11-24T04:24:51.579Z,81.34
2023-11-24T04:25:51.514Z,81.64
2023-11-24T04:26:51.560Z,81.74
2023-11-24T04:27:51.561Z,81.74
2023-11-24T04:28:51.502Z,81.54
2023-11-24T04:29:51.507Z,81.34
2023-11-24T04:30:51.495Z,81.54
2023-11-24T04:31:51.453Z,81.88
2023-11-24T04:32:51.520Z,82.09
2023-11-24T04:33:51.460Z,81.99
2023-11-24T04:34:51.502Z,81.88
2023-11-24T04:35:51.460Z,82.19
2023-11-24T04:36:51.447Z,82.09
2023-11-24T04:37:51.395Z,82.09
2023-11-24T04:38:51.379Z,82.19
2023-11-24T04:39:51.400Z,81.99
2023-11-24T04:40:51.396Z,81.68
2023-11-24T04:41:51.370Z,81.88
2023-11-24T04:42:51.368Z,82.19
2023-11-24T04:43:51.347Z,82.40
2023-11-24T04:44:51.306Z,82.09
2023-11-24T04:45:51.375Z,82.29
2023-11-24T04:46:51.352Z,82.50
2023-11-24T04:47:51.331Z,82.64
2023-11-24T04:48:51.381Z,82.75
2023-11-24T04:49:51.287Z,82.84
2023-11-24T04:50:51.272Z,82.64
2023-11-24T04:51:51.288Z,82.64
2023-11-24T04:52:51.262Z,82.43
2023-11-24T04:53:51.285Z,82.43
2023-11-24T04:54:51.334Z,82.64
2023-11-24T04:55:51.206Z,82.54
2023-11-24T04:56:51.183Z,82.54
2023-11-24T04:57:51.593Z,82.54
2023-11-24T04:58:51.201Z,82.64
2023-11-24T04:59:51.175Z,82.75
2023-11-24T05:00:51.221Z,82.54
2023-11-24T05:01:51.214Z,82.64
2023-11-24T05:02:51.163Z,82.64
2023-11-24T05:03:51.201Z,82.75
2023-11-24T05:04:51.103Z,83.15
2023-11-24T05:05:51.137Z,83.15
2023-11-24T05:06:51.112Z,83.26
2023-11-24T05:07:51.088Z,83.36
2023-11-24T05:08:51.073Z,83.46
2023-11-24T05:09:51.097Z,83.56
2023-11-24T05:10:51.055Z,83.46
2023-11-24T05:11:51.030Z,83.15
2023-11-24T05:12:51.076Z,83.15
2023-11-24T05:13:51.017Z,83.26
2023-11-24T05:14:51.015Z,83.26
2023-11-24T05:15:51.170Z,83.36
2023-11-24T05:16:51.107Z,83.46
2023-11-24T05:17:51.046Z,83.36
2023-11-24T05:18:51.012Z,83.46
2023-11-24T05:19:50.954Z,83.36
2023-11-24T05:20:50.939Z,83.46
2023-11-24T05:21:51.023Z,83.36
2023-11-24T05:22:50.915Z,83.36
2023-11-24T05:23:50.989Z,83.26
2023-11-24T05:24:50.966Z,82.95
2023-11-24T05:25:50.891Z,82.84
2023-11-24T05:26:51.035Z,83.05
2023-11-24T05:27:50.921Z,82.95
2023-11-24T05:28:50.864Z,82.75
2023-11-24T05:29:50.865Z,82.75
2023-11-24T05:30:50.858Z,82.64
2023-11-24T05:31:50.863Z,82.54
2023-11-24T05:32:50.938Z,82.75
2023-11-24T05:33:50.852Z,82.64
2023-11-24T05:34:50.836Z,82.84
2023-11-24T05:35:50.780Z,82.95
2023-11-24T05:36:50.789Z,82.75
2023-11-24T05:37:50.778Z,82.95
2023-11-24T05:38:50.756Z,83.05
2023-11-24T05:39:50.819Z,83.26
2023-11-24T05:40:50.748Z,83.05
2023-11-24T05:41:50.794Z,83.05
2023-11-24T05:42:50.870Z,83.05
2023-11-24T05:43:50.724Z,82.84
2023-11-24T05:44:50.694Z,82.95
2023-11-24T05:45:50.743Z,83.05
2023-11-24T05:46:50.727Z,82.84
2023-11-24T05:47:50.711Z,82.75
2023-11-24T05:48:50.666Z,82.75
2023-11-24T05:49:50.665Z,82.43
2023-11-24T05:50:50.630Z,82.54
2023-11-24T05:51:50.604Z,82.75
2023-11-24T05:52:50.630Z,82.64
2023-11-24T05:53:50.614Z,83.05
2023-11-24T05:54:50.609Z,83.05
2023-11-24T05:55:50.594Z,83.15
2023-11-24T05:56:50.604Z,82.95
2023-11-24T05:57:50.693Z,82.95
2023-11-24T05:58:50.550Z,82.75
2023-11-24T05:59:50.550Z,82.64
2023-11-24T06:00:50.597Z,82.75
2023-11-24T06:01:50.553Z,82.75
2023-11-24T06:02:50.533Z,82.75
2023-11-24T06:03:50.620Z,82.75
2023-11-24T06:04:50.669Z,83.05
2023-11-24T06:05:50.474Z,83.05
2023-11-24T06:06:50.498Z,82.95
2023-11-24T06:07:53.451Z,83.05
2023-11-24T06:08:50.459Z,83.15
2023-11-24T06:09:50.458Z,83.05
2023-11-24T06:10:50.405Z,82.84
2023-11-24T06:11:50.441Z,82.84
2023-11-24T06:12:50.410Z,82.95
2023-11-24T06:13:50.418Z,83.05
2023-11-24T06:14:50.470Z,83.05
2023-11-24T06:15:50.417Z,83.05
2023-11-24T06:16:50.369Z,83.26
2023-11-24T06:17:50.408Z,83.26
2023-11-24T06:18:50.379Z,83.36
2023-11-24T06:19:50.356Z,83.36
2023-11-24T06:20:50.327Z,83.56
2023-11-24T06:21:50.323Z,83.46
2023-11-24T06:22:50.283Z,83.77
2023-11-24T06:23:50.275Z,83.77
2023-11-24T06:24:50.285Z,83.87
2023-11-24T06:25:50.346Z,83.98
2023-11-24T06:26:50.263Z,83.98
2023-11-24T06:27:50.271Z,83.98
2023-11-24T06:28:50.234Z,83.98
2023-11-24T06:29:50.210Z,84.28
2023-11-24T06:30:50.318Z,84.39
2023-11-24T06:31:50.226Z,84.49
2023-11-24T06:32:50.227Z,84.28
2023-11-24T06:33:50.271Z,84.49
2023-11-24T06:34:50.176Z,84.39
2023-11-24T06:35:50.148Z,84.59
2023-11-24T06:36:50.185Z,84.59
2023-11-24T06:37:50.182Z,84.74
2023-11-24T06:38:50.133Z,84.69
2023-11-24T06:39:50.169Z,84.74
2023-11-24T06:40:50.123Z,84.74
2023-11-24T06:41:50.118Z,84.74
2023-11-24T06:42:50.123Z,84.69
2023-11-24T06:43:50.091Z,84.80
2023-11-24T06:44:50.074Z,84.90
2023-11-24T06:45:50.117Z,85.00
2023-11-24T06:46:50.058Z,84.90
2023-11-24T06:47:50.055Z,85.04
2023-11-24T06:48:50.055Z,85.14
2023-11-24T06:49:50.003Z,85.31
2023-11-24T06:50:49.994Z,85.41
2023-11-24T06:51:50.007Z,85.62
2023-11-24T06:52:49.989Z,85.72
2023-11-24T06:53:49.981Z,86.07
2023-11-24T06:54:49.985Z,86.24
2023-11-24T06:55:49.960Z,86.27
2023-11-24T06:56:49.881Z,86.38
2023-11-24T06:57:49.932Z,86.48
2023-11-24T06:58:49.888Z,86.58
2023-11-24T06:59:49.851Z,86.58
2023-11-24T07:00:49.957Z,86.58
2023-11-24T07:01:49.905Z,86.68
2023-11-24T07:02:50.049Z,86.89
2023-11-24T07:03:49.929Z,86.79
2023-11-24T07:04:49.797Z,86.89
2023-11-24T07:05:49.793Z,86.89
2023-11-24T07:06:49.789Z,86.99
2023-11-24T07:07:49.816Z,86.99
2023-11-24T07:08:49.797Z,87.10
2023-11-24T07:09:49.804Z,86.89
2023-11-24T07:10:49.778Z,86.89
2023-11-24T07:11:49.739Z,86.99
2023-11-24T07:12:49.757Z,86.89
2023-11-24T07:13:49.724Z,86.79
2023-11-24T07:14:49.713Z,86.89
2023-11-24T07:15:49.794Z,86.79
2023-11-24T07:16:49.711Z,86.79
2023-11-24T07:17:49.729Z,86.68
2023-11-24T07:18:49.749Z,86.79
2023-11-24T07:19:49.640Z,86.58
2023-11-24T07:20:50.643Z,86.58
2023-11-24T07:21:49.668Z,86.48
2023-11-24T07:22:49.638Z,86.68
2023-11-24T07:23:49.650Z,86.48
2023-11-24T07:24:49.603Z,85.97
2023-11-24T07:25:49.653Z,85.97
2023-11-24T07:26:49.599Z,85.97
2023-11-24T07:27:49.874Z,86.17
2023-11-24T07:28:49.592Z,86.17
2023-11-24T07:29:49.569Z,85.97
2023-11-24T07:30:49.583Z,85.66
2023-11-24T07:31:49.601Z,85.46
2023-11-24T07:32:49.608Z,85.35
2023-11-24T07:33:49.604Z,85.46
2023-11-24T07:34:49.607Z,85.35
2023-11-24T07:35:49.547Z,85.46
2023-11-24T07:36:49.604Z,85.46
2023-11-24T07:37:49.564Z,85.55
2023-11-24T07:38:49.504Z,85.55
2023-11-24T07:39:49.469Z,85.46
2023-11-24T07:40:49.424Z,85.55
2023-11-24T07:41:49.417Z,85.55
2023-11-24T07:42:49.443Z,85.46
2023-11-24T07:43:49.605Z,85.66
2023-11-24T07:44:49.385Z,85.86
2023-11-24T07:45:49.474Z,85.76
2023-11-24T07:46:49.447Z,85.35
2023-11-24T07:47:49.367Z,85.35
2023-11-24T07:48:49.368Z,85.35
2023-11-24T07:49:49.339Z,85.25
2023-11-24T07:50:49.331Z,85.35
2023-11-24T07:51:49.469Z,85.46
2023-11-24T07:52:49.329Z,85.46
2023-11-24T07:53:49.299Z,85.46
2023-11-24T07:54:49.421Z,85.14
2023-11-24T07:55:49.291Z,85.55
2023-11-24T07:56:49.300Z,85.76
2023-11-24T07:57:49.302Z,84.94
2023-11-24T07:58:49.250Z,84.84
2023-11-24T07:59:55.551Z,84.22
2023-11-24T08:00:49.242Z,84.22
2023-11-24T08:01:49.276Z,84.74
2023-11-24T08:02:49.364Z,84.94
2023-11-24T08:03:49.257Z,84.53
2023-11-24T08:04:49.381Z,84.01
2023-11-24T08:05:49.218Z,84.32
2023-11-24T08:06:49.204Z,84.32
2023-11-24T08:07:49.178Z,83.54
2023-11-24T08:08:49.172Z,84.05
2023-11-24T08:09:49.168Z,84.05
2023-11-24T08:10:49.165Z,84.05
2023-11-24T08:11:49.141Z,83.85
2023-11-24T08:12:49.188Z,84.05
2023-11-24T08:13:49.129Z,84.05
2023-11-24T08:14:49.089Z,83.23
2023-11-24T08:15:49.155Z,83.13
2023-11-24T08:16:49.138Z,82.92
2023-11-24T08:17:49.192Z,82.71
2023-11-24T08:18:51.248Z,83.23
2023-11-24T08:19:49.034Z,83.23
2023-11-24T08:20:49.020Z,82.92
2023-11-24T08:21:49.035Z,83.13
2023-11-24T08:22:49.022Z,83.33
2023-11-24T08:23:49.032Z,83.44
2023-11-24T08:24:49.082Z,83.33
2023-11-24T08:25:48.968Z,82.92
2023-11-24T08:26:48.977Z,83.13
2023-11-24T08:27:49.003Z,83.23
2023-11-24T08:28:48.942Z,83.44
2023-11-24T08:29:48.966Z,83.44
2023-11-24T08:30:48.994Z,83.13
2023-11-24T08:31:48.900Z,83.13
2023-11-24T08:32:49.026Z,83.23
2023-11-24T08:33:48.992Z,83.44
2023-11-24T08:34:48.956Z,83.23
2023-11-24T08:35:48.906Z,83.23
2023-11-24T08:36:48.953Z,83.33
2023-11-24T08:37:48.905Z,83.44
2023-11-24T08:38:48.864Z,83.54
2023-11-24T08:39:48.856Z,83.85
2023-11-24T08:40:48.843Z,83.85
2023-11-24T08:41:48.817Z,83.95
2023-11-24T08:42:48.917Z,84.16
2023-11-24T08:43:48.772Z,83.81
2023-11-24T08:44:48.758Z,83.81
2023-11-24T08:45:48.904Z,83.91
2023-11-24T08:46:48.932Z,84.01
2023-11-24T08:47:48.841Z,84.12
2023-11-24T08:48:48.727Z,84.12
2023-11-24T08:49:48.735Z,84.22
2023-11-24T08:50:48.791Z,84.32
2023-11-24T08:51:48.722Z,84.32
2023-11-24T08:52:49.175Z,84.12
2023-11-24T08:53:48.670Z,84.32
2023-11-24T08:54:48.677Z,84.12
2023-11-24T08:55:48.663Z,83.81
2023-11-24T08:56:48.633Z,84.22
2023-11-24T08:57:48.748Z,84.42
2023-11-24T08:58:48.656Z,84.22
2023-11-24T08:59:48.643Z,84.22
2023-11-24T09:00:48.620Z,84.22
2023-11-24T09:01:48.623Z,84.22
2023-11-24T09:02:48.625Z,84.01
2023-11-24T09:03:48.672Z,83.50
2023-11-24T09:04:48.623Z,83.29
2023-11-24T09:05:48.569Z,83.09
2023-11-24T09:06:48.624Z,82.99
2023-11-24T09:07:48.568Z,83.09
2023-11-24T09:08:48.517Z,82.78
2023-11-24T09:09:48.516Z,82.37
2023-11-24T09:10:48.554Z,82.47
2023-11-24T09:11:48.485Z,81.96
2023-11-24T09:12:48.532Z,81.14
2023-11-24T09:13:49.784Z,81.96
2023-11-24T09:14:48.477Z,81.76
2023-11-24T09:15:48.500Z,81.96
2023-11-24T09:16:48.469Z,81.96
2023-11-24T09:17:48.416Z,81.55
2023-11-24T09:18:48.497Z,81.65
2023-11-24T09:19:48.400Z,81.45
2023-11-24T09:20:48.394Z,81.34
2023-11-24T09:21:48.391Z,81.14
2023-11-24T09:22:48.368Z,80.73
2023-11-24T09:23:48.351Z,81.14
2023-11-24T09:24:49.545Z,81.34
2023-11-24T09:25:48.333Z,81.55
2023-11-24T09:26:48.345Z,81.96
2023-11-24T09:27:48.383Z,82.06
2023-11-24T09:28:48.328Z,82.06
2023-11-24T09:29:48.301Z,82.06
2023-11-24T09:30:48.414Z,82.37
2023-11-24T09:31:48.303Z,82.78
2023-11-24T09:32:48.353Z,82.27
2023-11-24T09:33:48.323Z,81.86
2023-11-24T09:34:48.315Z,81.86
2023-11-24T09:35:48.255Z,81.76
2023-11-24T09:36:48.294Z,81.65
2023-11-24T09:37:48.204Z,81.55
2023-11-24T09:38:48.237Z,81.65
2023-11-24T09:39:48.233Z,81.45
2023-11-24T09:40:48.182Z,81.65
2023-11-24T09:41:48.173Z,81.96
2023-11-24T09:42:48.188Z,81.96
2023-11-24T09:43:48.157Z,82.06
2023-11-24T09:44:48.154Z,81.96
2023-11-24T09:45:48.197Z,82.47
2023-11-24T09:46:51.977Z,82.27
2023-11-24T09:47:48.131Z,81.96
2023-11-24T09:48:48.122Z,81.34
2023-11-24T09:49:48.085Z,81.69
2023-11-24T09:50:48.102Z,81.28
2023-11-24T09:51:48.100Z,81.48
2023-11-24T09:52:48.056Z,81.79
2023-11-24T09:53:48.044Z,81.79
2023-11-24T09:54:48.091Z,82.31
2023-11-24T09:55:48.051Z,82.10
2023-11-24T09:56:48.039Z,82.31
2023-11-24T09:57:48.060Z,82.41
2023-11-24T09:58:48.046Z,82.41
2023-11-24T09:59:47.997Z,82.10
2023-11-24T10:00:48.014Z,82.41
2023-11-24T10:01:47.973Z,82.20
2023-11-24T10:02:47.979Z,82.10
2023-11-24T10:03:48.025Z,82.31
2023-11-24T10:04:47.943Z,82.62
2023-11-24T10:05:47.919Z,82.71
2023-11-24T10:06:47.952Z,82.82
2023-11-24T10:07:47.919Z,82.82
2023-11-24T10:08:47.951Z,82.71
2023-11-24T10:09:47.930Z,82.51
2023-11-24T10:10:47.864Z,82.31
2023-11-24T10:11:47.858Z,82.20
2023-11-24T10:12:47.846Z,82.31
2023-11-24T10:13:50.198Z,82.31
2023-11-24T10:14:47.816Z,82.20
2023-11-24T10:15:47.860Z,80.97
2023-11-24T10:16:47.844Z,80.56
2023-11-24T10:17:47.789Z,80.87
2023-11-24T10:18:47.826Z,81.38
2023-11-24T10:19:47.778Z,81.48
2023-11-24T10:20:47.763Z,82.10
2023-11-24T10:21:47.808Z,82.20
2023-11-24T10:22:47.766Z,82.00
2023-11-24T10:23:47.742Z,81.90
2023-11-24T10:24:47.741Z,82.20
2023-11-24T10:25:47.718Z,81.69
2023-11-24T10:26:47.733Z,81.90
2023-11-24T10:27:47.728Z,81.69
2023-11-24T10:28:47.685Z,81.79
2023-11-24T10:29:47.652Z,81.69
2023-11-24T10:30:47.737Z,81.48
2023-11-24T10:31:47.645Z,81.38
2023-11-24T10:32:47.693Z,80.97
2023-11-24T10:33:47.736Z,81.18
2023-11-24T10:34:47.725Z,81.38
2023-11-24T10:35:47.598Z,81.07
2023-11-24T10:36:47.656Z,80.97
2023-11-24T10:37:47.598Z,80.97
2023-11-24T10:38:47.616Z,80.80
2023-11-24T10:39:47.600Z,80.80
2023-11-24T10:40:47.572Z,81.11
2023-11-24T10:41:47.594Z,81.32
2023-11-24T10:42:47.590Z,81.73
2023-11-24T10:43:47.525Z,81.69
2023-11-24T10:44:47.500Z,81.93
2023-11-24T10:45:47.612Z,81.79
2023-11-24T10:46:47.580Z,81.48
2023-11-24T10:47:47.526Z,80.35
2023-11-24T10:48:47.554Z,80.97
2023-11-24T10:49:47.457Z,81.21
2023-11-24T10:50:47.461Z,81.01
2023-11-24T10:51:47.493Z,80.91
2023-11-24T10:52:47.443Z,80.60
2023-11-24T10:53:47.409Z,81.01
2023-11-24T10:54:47.425Z,81.11
2023-11-24T10:55:47.397Z,81.32
2023-11-24T10:56:47.417Z,80.91
2023-11-24T10:57:47.387Z,81.01
2023-11-24T10:58:47.423Z,81.21
2023-11-24T10:59:47.400Z,81.21
2023-11-24T11:00:47.446Z,80.91
2023-11-24T11:01:47.469Z,80.91
2023-11-24T11:02:47.443Z,81.21
2023-11-24T11:03:47.374Z,81.42
2023-11-24T11:04:47.339Z,81.42
2023-11-24T11:05:47.289Z,81.11
2023-11-24T11:06:47.344Z,81.21
2023-11-24T11:07:47.278Z,81.52
2023-11-24T11:08:47.290Z,81.62
2023-11-24T11:09:47.258Z,81.62
2023-11-24T11:10:47.399Z,80.80
2023-11-24T11:11:47.230Z,81.32
2023-11-24T11:12:47.238Z,81.42
2023-11-24T11:13:47.248Z,81.18
2023-11-24T11:14:47.199Z,81.07
2023-11-24T11:15:47.188Z,80.97
2023-11-24T11:16:47.229Z,81.07
2023-11-24T11:17:47.162Z,81.18
2023-11-24T11:18:47.185Z,81.07
2023-11-24T11:19:47.225Z,81.38
2023-11-24T11:20:47.152Z,81.18
2023-11-24T11:21:47.142Z,81.38
2023-11-24T11:22:47.108Z,81.18
2023-11-24T11:23:47.092Z,81.07
2023-11-24T11:24:47.156Z,80.87
2023-11-24T11:25:47.144Z,81.28
2023-11-24T11:26:47.065Z,81.04
2023-11-24T11:27:47.139Z,80.83
2023-11-24T11:28:47.080Z,80.93
2023-11-24T11:29:47.032Z,80.73
2023-11-24T11:30:47.157Z,80.83
2023-11-24T11:31:47.272Z,80.87
2023-11-24T11:32:47.035Z,80.56
2023-11-24T11:33:47.071Z,80.77
2023-11-24T11:34:47.013Z,80.35
2023-11-24T11:35:46.987Z,79.94
2023-11-24T11:36:47.038Z,79.43
2023-11-24T11:37:46.960Z,79.94
2023-11-24T11:38:46.991Z,80.01
2023-11-24T11:39:46.995Z,79.53
2023-11-24T11:40:46.946Z,79.33
2023-11-24T11:41:46.948Z,78.71
2023-11-24T11:42:46.953Z,78.92
2023-11-24T11:43:46.886Z,78.81
2023-11-24T11:44:46.894Z,79.22
2023-11-24T11:45:46.933Z,79.43
2023-11-24T11:46:46.869Z,79.43
2023-11-24T11:47:46.904Z,79.22
2023-11-24T11:48:46.875Z,79.22
2023-11-24T11:49:46.817Z,78.81
2023-11-24T11:50:46.865Z,78.92
2023-11-24T11:51:46.863Z,79.12
2023-11-24T11:52:46.941Z,79.22
2023-11-24T11:53:46.786Z,79.53
2023-11-24T11:54:46.888Z,79.33
2023-11-24T11:55:46.758Z,79.12
2023-11-24T11:56:46.809Z,78.92
2023-11-24T11:57:46.774Z,78.92
2023-11-24T11:58:46.768Z,79.12
2023-11-24T11:59:46.731Z,78.50
2023-11-24T12:00:46.738Z,78.61
2023-11-24T12:01:46.905Z,78.20
2023-11-24T12:02:46.759Z,78.09
2023-11-24T12:03:46.794Z,77.68
2023-11-24T12:04:46.707Z,77.89
2023-11-24T12:05:46.669Z,77.89
2023-11-24T12:06:46.699Z,77.85
2023-11-24T12:07:46.652Z,77.34
2023-11-24T12:08:46.647Z,77.34
2023-11-24T12:09:46.687Z,76.93
2023-11-24T12:10:46.649Z,77.34
2023-11-24T12:11:46.629Z,77.44
2023-11-24T12:12:46.629Z,77.13
2023-11-24T12:13:46.629Z,77.55
2023-11-24T12:14:46.599Z,76.93
2023-11-24T12:15:46.708Z,77.03
2023-11-24T12:16:46.648Z,77.75
2023-11-24T12:17:46.680Z,77.65
2023-11-24T12:18:46.549Z,77.44
2023-11-24T12:19:46.571Z,77.34
2023-11-24T12:20:46.511Z,77.13
2023-11-24T12:21:46.549Z,75.90
2023-11-24T12:22:46.538Z,75.49
2023-11-24T12:23:46.491Z,76.00
2023-11-24T12:24:46.506Z,74.67
2023-11-24T12:25:46.472Z,74.77
2023-11-24T12:26:46.490Z,75.49
2023-11-24T12:27:46.528Z,75.32
2023-11-24T12:28:46.420Z,74.50
2023-11-24T12:29:46.430Z,74.91
2023-11-24T12:30:46.474Z,75.63
2023-11-24T12:31:46.570Z,76.55
2023-11-24T12:32:46.502Z,76.76
2023-11-24T12:33:46.433Z,77.06
2023-11-24T12:34:46.545Z,77.17
2023-11-24T12:35:46.377Z,77.37
2023-11-24T12:36:46.413Z,77.78
2023-11-24T12:37:46.367Z,77.68
2023-11-24T12:38:46.370Z,77.00
2023-11-24T12:39:46.323Z,76.90
2023-11-24T12:40:46.307Z,76.79
2023-11-24T12:41:46.292Z,76.28
2023-11-24T12:42:46.301Z,76.48
2023-11-24T12:43:46.297Z,76.18
2023-11-24T12:44:46.256Z,76.69
2023-11-24T12:45:46.335Z,76.01
2023-11-24T12:46:46.397Z,76.31
2023-11-24T12:47:46.273Z,76.62
2023-11-24T12:48:46.237Z,76.62
2023-11-24T12:49:46.208Z,76.83
2023-11-24T12:50:46.192Z,77.14
2023-11-24T12:51:46.365Z,77.03
2023-11-24T12:52:46.276Z,76.93